»·PEaware :: N142D KPRC-KABQ

N142D :: KPRC-KABQ

FLIGHT INFORMATION

Flight Status: Arrived
Operator: Privately registered:
United States
More flights under this callsign
Pilot: Martin A. (6413)
Aircraft: CIRRUS SR-22
(SR22)
More flights by this aircraft type
Origin: KPRC Love
United States
Destination: KABQ Albuquerque Intl Sunport
United States
More flights between these airports :: More routes between these airports
Route: PRC3 DRK V12 ABQ
File this flight plan on PilotEdge
Remarks:
Altitude:
(Current/Filed)
11,000ft
Speed:
(Current/Filed)
171kts
Departed: 06-Jun-23 11:06 AM
Arrived: 06-Jun-23 12:55 PM
Distance/Time
Traveled:
286nm/1:48
Distance/Time
To Go:
Arrived

Flight Plot

Page will automatically refresh every two minutes.

Flight plan parsing failed; only flown route is shown


Map Options




Map Legend


Flown Route
Filed Route
Departure Airport
Arrival Airport
Navaid (VOR, NDB)
Fix

Horizontal Profiles

Position Reports

Time Latitude Longitude Heading Altitude Ground
Speed
06-Jun-23 10:41 34.646760 -112.424083 266 5021ft 0kts
06-Jun-23 10:42 34.646760 -112.424083 266 5021ft 0kts
06-Jun-23 10:43 34.646760 -112.424083 266 5021ft 0kts
06-Jun-23 10:44 34.646760 -112.424083 266 5021ft 0kts
06-Jun-23 10:45 34.646760 -112.424083 266 5021ft 0kts
06-Jun-23 10:46 34.646760 -112.424083 266 5021ft 0kts
06-Jun-23 10:47 34.646760 -112.424083 266 5021ft 0kts
06-Jun-23 10:48 34.646760 -112.424083 266 5021ft 0kts
06-Jun-23 10:49 34.646760 -112.424083 266 5021ft 0kts
06-Jun-23 10:50 34.646760 -112.424083 266 5021ft 0kts
06-Jun-23 10:51 34.646760 -112.424083 266 5021ft 0kts
06-Jun-23 10:52 34.646760 -112.424083 266 5021ft 0kts
06-Jun-23 10:53 34.646760 -112.424083 266 5021ft 0kts
06-Jun-23 10:54 34.646760 -112.424083 266 5021ft 0kts
06-Jun-23 10:55 34.646760 -112.424083 266 5021ft 0kts
06-Jun-23 10:56 34.646760 -112.424083 266 5021ft 0kts
06-Jun-23 10:57 34.646760 -112.424083 266 5021ft 0kts
06-Jun-23 10:58 34.646751 -112.424135 259 5021ft 0kts
06-Jun-23 10:59 34.646995 -112.424875 306 5020ft 2kts
06-Jun-23 11:00 34.647875 -112.424730 36 5017ft 12kts
06-Jun-23 11:01 34.649495 -112.425720 310 5014ft 9kts
06-Jun-23 11:02 34.651922 -112.428388 338 5012ft 6kts
06-Jun-23 11:03 34.652176 -112.428431 15 5012ft 0kts
06-Jun-23 11:04 34.652236 -112.428400 44 5012ft 0kts
06-Jun-23 11:05 34.646685 -112.420713 134 5181ft 80kts
06-Jun-23 11:06 34.641389 -112.390018 69 5784ft 133kts
06-Jun-23 11:07 34.666245 -112.359541 344 6642ft 152kts
06-Jun-23 11:08 34.683097 -112.402559 277 7441ft 150kts
06-Jun-23 11:09 34.695115 -112.450831 277 8309ft 149kts
06-Jun-23 11:10 34.727357 -112.451097 85 9004ft 139kts
06-Jun-23 11:11 34.728616 -112.406782 88 9782ft 136kts
06-Jun-23 11:12 34.736572 -112.359564 86 10352ft 147kts
06-Jun-23 11:13 34.745175 -112.311077 86 10933ft 148kts
06-Jun-23 11:14 34.753923 -112.261510 86 11399ft 153kts
06-Jun-23 11:15 34.763419 -112.207592 85 11430ft 170kts
06-Jun-23 11:16 34.775096 -112.150281 83 11424ft 176kts
06-Jun-23 11:17 34.787645 -112.092548 83 11426ft 177kts
06-Jun-23 11:18 34.800225 -112.034637 82 11438ft 177kts
06-Jun-23 11:19 34.812843 -111.976414 82 11437ft 178kts
06-Jun-23 11:20 34.825397 -111.918166 82 11424ft 177kts
06-Jun-23 11:21 34.837927 -111.860219 82 11444ft 177kts
06-Jun-23 11:22 34.850558 -111.801533 81 11425ft 179kts
06-Jun-23 11:23 34.863104 -111.742950 81 11442ft 179kts
06-Jun-23 11:24 34.875691 -111.684230 82 11436ft 181kts
06-Jun-23 11:25 34.888325 -111.624865 81 11440ft 180kts
06-Jun-23 11:26 34.900870 -111.565808 82 11439ft 180kts
06-Jun-23 11:27 34.913451 -111.506453 81 11432ft 181kts
06-Jun-23 11:28 34.925974 -111.447275 81 11429ft 181kts
06-Jun-23 11:29 34.938498 -111.387820 81 11441ft 181kts
06-Jun-23 11:30 34.951024 -111.328314 83 11441ft 181kts
06-Jun-23 11:31 34.963534 -111.268722 81 11427ft 180kts
06-Jun-23 11:32 34.975939 -111.209377 81 11449ft 181kts
06-Jun-23 11:33 34.988349 -111.149921 81 11459ft 180kts
06-Jun-23 11:35 35.000771 -111.090409 82 11462ft 180kts
06-Jun-23 11:36 35.013144 -111.030833 83 11472ft 182kts
06-Jun-23 11:37 35.025525 -110.971062 83 11469ft 180kts
06-Jun-23 11:38 35.037828 -110.911388 82 11468ft 181kts
06-Jun-23 11:39 35.050158 -110.851575 83 11469ft 182kts
06-Jun-23 11:40 35.060990 -110.791991 100 11440ft 172kts
06-Jun-23 11:41 35.058474 -110.733496 100 11471ft 173kts
06-Jun-23 11:42 35.055443 -110.674538 100 11466ft 175kts
06-Jun-23 11:43 35.052355 -110.615612 100 11475ft 174kts
06-Jun-23 11:44 35.049203 -110.556537 100 11467ft 174kts
06-Jun-23 11:45 35.046046 -110.497638 100 11476ft 174kts
06-Jun-23 11:46 35.042808 -110.438315 100 11461ft 175kts
06-Jun-23 11:47 35.039548 -110.378904 101 11465ft 174kts
06-Jun-23 11:48 35.036300 -110.319852 101 11477ft 173kts
06-Jun-23 11:49 35.033006 -110.260819 101 11478ft 174kts
06-Jun-23 11:50 35.029640 -110.201737 101 11474ft 175kts
06-Jun-23 11:51 35.026266 -110.142151 101 11429ft 174kts
06-Jun-23 11:52 35.022905 -110.083126 100 11441ft 174kts
06-Jun-23 11:53 35.019461 -110.023704 101 11466ft 175kts
06-Jun-23 11:54 35.016010 -109.964368 101 11450ft 175kts
06-Jun-23 11:55 35.012556 -109.905464 100 11458ft 175kts
06-Jun-23 11:56 35.009036 -109.846508 100 11464ft 174kts
06-Jun-23 11:57 35.005546 -109.787382 100 11468ft 176kts
06-Jun-23 11:57 35.002532 -109.737808 100 11482ft 176kts
06-Jun-23 11:59 34.998349 -109.668751 102 11479ft 174kts
06-Jun-23 12:00 34.994707 -109.609455 100 11494ft 177kts
06-Jun-23 12:01 34.991007 -109.548884 100 11537ft 183kts
06-Jun-23 12:01 34.987752 -109.496931 100 11505ft 186kts
06-Jun-23 12:02 34.983860 -109.435023 101 11524ft 181kts
06-Jun-23 12:04 34.979240 -109.362286 99 11512ft 187kts
06-Jun-23 12:05 34.975183 -109.298515 101 11405ft 189kts
06-Jun-23 12:05 34.971878 -109.246280 100 11375ft 181kts
06-Jun-23 12:06 34.967813 -109.184187 100 11355ft 184kts
06-Jun-23 12:07 34.967409 -109.121487 93 11366ft 187kts
06-Jun-23 12:09 34.970386 -109.048298 93 11405ft 184kts
06-Jun-23 12:10 34.973026 -108.985616 92 11385ft 187kts
06-Jun-23 12:10 34.975193 -108.933479 93 11377ft 183kts
06-Jun-23 12:11 34.977702 -108.871797 92 11381ft 181kts
06-Jun-23 12:12 34.980191 -108.810788 92 11365ft 179kts
06-Jun-23 12:13 34.982630 -108.750213 92 11374ft 178kts
06-Jun-23 12:14 34.984957 -108.689992 91 11381ft 178kts
06-Jun-23 12:15 34.987367 -108.629294 91 11367ft 179kts
06-Jun-23 12:16 34.989632 -108.568910 92 11377ft 177kts
06-Jun-23 12:17 34.991924 -108.509223 92 11372ft 175kts
06-Jun-23 12:18 34.994119 -108.449466 91 11369ft 176kts
06-Jun-23 12:19 34.996336 -108.389874 91 11384ft 176kts
06-Jun-23 12:20 34.998514 -108.330410 92 11382ft 173kts
06-Jun-23 12:21 35.000605 -108.271585 90 11391ft 174kts
06-Jun-23 12:22 35.002771 -108.212421 91 11396ft 175kts
06-Jun-23 12:23 35.004810 -108.153264 91 11395ft 173kts
06-Jun-23 12:24 35.006825 -108.094844 90 11387ft 173kts
06-Jun-23 12:25 35.008847 -108.036048 91 11391ft 173kts
06-Jun-23 12:26 35.010804 -107.977453 91 11402ft 173kts
06-Jun-23 12:27 35.012760 -107.918696 89 11404ft 174kts
06-Jun-23 12:28 35.014684 -107.859608 90 11414ft 176kts
06-Jun-23 12:29 35.016620 -107.800188 91 11409ft 174kts
06-Jun-23 12:30 35.018484 -107.741308 90 11418ft 173kts
06-Jun-23 12:31 35.020346 -107.682298 91 11424ft 175kts
06-Jun-23 12:32 35.022135 -107.622702 91 11423ft 176kts
06-Jun-23 12:33 35.023959 -107.562891 90 11422ft 176kts
06-Jun-23 12:34 35.025711 -107.503392 90 11436ft 176kts
06-Jun-23 12:35 35.027452 -107.443593 90 11430ft 176kts
06-Jun-23 12:36 35.017662 -107.386422 120 11463ft 175kts
06-Jun-23 12:37 34.992646 -107.334107 123 11554ft 184kts
06-Jun-23 12:38 34.965599 -107.280221 123 11532ft 188kts
06-Jun-23 12:39 34.938136 -107.225941 124 11571ft 188kts
06-Jun-23 12:40 34.911047 -107.172423 125 11523ft 184kts
06-Jun-23 12:41 34.884022 -107.119382 124 11232ft 183kts
06-Jun-23 12:42 34.858759 -107.066004 98 11017ft 188kts
06-Jun-23 12:43 34.864700 -107.001311 88 10539ft 195kts
06-Jun-23 12:44 34.868201 -106.947442 90 9822ft 139kts
06-Jun-23 12:45 34.871172 -106.899680 90 9298ft 142kts
06-Jun-23 12:46 34.873889 -106.856955 90 9056ft 138kts
06-Jun-23 12:47 34.877246 -106.809877 74 8472ft 143kts
06-Jun-23 12:48 34.903519 -106.773782 48 8217ft 143kts
06-Jun-23 12:49 34.927763 -106.744558 49 7947ft 112kts
06-Jun-23 12:50 34.950136 -106.717146 48 7404ft 113kts
06-Jun-23 12:51 34.973133 -106.689324 47 6951ft 122kts
06-Jun-23 12:52 34.995490 -106.662632 45 6162ft 109kts
06-Jun-23 12:53 35.015437 -106.638755 45 5545ft 92kts
06-Jun-23 12:54 35.029548 -106.621835 44 5309ft 40kts
06-Jun-23 12:55 35.034206 -106.617618 17 5310ft 0kts
06-Jun-23 12:56 35.034756 -106.619034 312 5310ft 11kts
06-Jun-23 12:57 35.035792 -106.619170 148 5309ft 0kts
06-Jun-23 12:58 35.035792 -106.619170 148 5309ft 0kts

Navigation Log

Ident Type
Flight plan parsing failed, navigation log unavailable